Capitol Logistics 2121

Operating for AJT



KIAH
George Bush Intcntl/Houston Airport
Houston, Texas
KCVG
Cincinnati/Northern Kentucky International Airport
Covington, Kentucky

Activity Log

Date Flight Route Aircraft Duration
11/21/2021 CPX2121 CHCLL5 IIU TIIDE UJM JODOX DHART PLANB SKNRD4 B762 2h 04m

Route Details

Aircraft Information
Group: Boeing Common
Types: B752,B762,B763
Route Data
Demand: H
Distance: 758nm
Duration: 2h 02m
Recm'd Route: CHCLL5 IIU TIIDE UJM JODOX DHART PLANB SKNRD4
Origin Wx: KIAH 242053Z 11019G27KT 10SM FEW010 SCT020 OVC110 24/21 A2976 RMK AO2 PK WND 11027/2051 RAB1954E12 SLP076 P0000 60000 T02390211 58010
Dest. Wx: KCVG 242052Z 09008KT 10SM FEW041 BKN300 23/15 A3010 RMK AO2 SLP187 T02330150 56014
Notes:

Financial History
Total Freight: 74,740lbs
Average Load: 74,740lbs/flt
Fuel Used: 23,349lbs
Avg. Fuel Used: 23,349lbs/flt
Fuel Expense: $7,705
Avg. Fuel Expense: $7,705
Avg. Fuel Cost: $0.33/lbs
Total Gross Income: $169,660
Pilot Pay: $239
Total Expenses: $24,275
Total Revenue: $137,192
Average Revenue: $169,659.80